< < Back
Terminal Aerodrome Forecast


Current Version              Previous Versions:   1  2  3  4  5  6  7  8  9  

Terminal Aerodrome Forecast

530
FTUS44 KBMX 291230 AAA
TAFTCL
TAF AMD
KTCL 291230Z 2913/3012 20003KT P6SM SCT025
     FM291500 23008KT P6SM VCSH BKN035
     FM291800 25008KT P6SM VCTS BKN050CB
     FM300200 00000KT P6SM SCT025=

Latest METAR

836
SAUS70 KWBC 300300 RRJ
MTRTCL
METAR KTCL 300253Z AUTO 00000KT 10SM CLR 26/24 A3000 RMK AO2 SLP155
T02560239 51018


USA.gov is the U.S. government's official web portal to all federal, state and local government web resources and services.